sensor_id;sensor_type;location;lat;lon;timestamp;temperature;humidity
60027;DHT22;45891;53.006;6.512;2023-02-25T00:00:24;4.50;99.90
60027;DHT22;45891;53.006;6.512;2023-02-25T00:02:50;4.40;99.90
60027;DHT22;45891;53.006;6.512;2023-02-25T00:05:17;4.40;99.90
60027;DHT22;45891;53.006;6.512;2023-02-25T00:07:44;4.40;99.90
60027;DHT22;45891;53.006;6.512;2023-02-25T00:10:10;4.50;99.90
60027;DHT22;45891;53.006;6.512;2023-02-25T00:12:38;4.50;99.90
60027;DHT22;45891;53.006;6.512;2023-02-25T00:15:04;4.50;99.90
60027;DHT22;45891;53.006;6.512;2023-02-25T00:17:31;4.50;99.90
60027;DHT22;45891;53.006;6.512;2023-02-25T00:19:57;4.50;99.90
60027;DHT22;45891;53.006;6.512;2023-02-25T00:22:23;4.50;99.90
60027;DHT22;45891;53.006;6.512;2023-02-25T00:24:52;4.40;99.90
60027;DHT22;45891;53.006;6.512;2023-02-25T00:27:18;4.40;99.90
60027;DHT22;45891;53.006;6.512;2023-02-25T00:29:44;4.50;99.90
60027;DHT22;45891;53.006;6.512;2023-02-25T00:32:10;4.50;99.90
60027;DHT22;45891;53.006;6.512;2023-02-25T00:34:36;4.50;99.90
60027;DHT22;45891;53.006;6.512;2023-02-25T00:37:02;4.50;99.90
60027;DHT22;45891;53.006;6.512;2023-02-25T00:39:29;4.40;99.90
60027;DHT22;45891;53.006;6.512;2023-02-25T00:42:13;4.50;99.90
60027;DHT22;45891;53.006;6.512;2023-02-25T00:44:42;4.50;99.90
60027;DHT22;45891;53.006;6.512;2023-02-25T00:47:08;4.50;99.90
60027;DHT22;45891;53.006;6.512;2023-02-25T00:49:34;4.60;99.90
60027;DHT22;45891;53.006;6.512;2023-02-25T00:52:00;4.60;99.90
60027;DHT22;45891;53.006;6.512;2023-02-25T00:54:26;4.60;99.90
60027;DHT22;45891;53.006;6.512;2023-02-25T00:56:52;4.60;99.90
60027;DHT22;45891;53.006;6.512;2023-02-25T00:59:18;4.60;99.90
60027;DHT22;45891;53.006;6.512;2023-02-25T01:01:44;4.60;99.90
60027;DHT22;45891;53.006;6.512;2023-02-25T01:04:10;4.60;99.90
60027;DHT22;45891;53.006;6.512;2023-02-25T01:06:36;4.60;99.90
60027;DHT22;45891;53.006;6.512;2023-02-25T01:09:04;4.60;99.90
60027;DHT22;45891;53.006;6.512;2023-02-25T01:11:31;4.60;99.90
60027;DHT22;45891;53.006;6.512;2023-02-25T01:13:58;4.60;99.90
60027;DHT22;45891;53.006;6.512;2023-02-25T01:16:25;4.60;99.90
60027;DHT22;45891;53.006;6.512;2023-02-25T01:18:52;4.60;99.90
60027;DHT22;45891;53.006;6.512;2023-02-25T01:21:20;4.50;99.90
60027;DHT22;45891;53.006;6.512;2023-02-25T01:23:47;4.60;99.90
60027;DHT22;45891;53.006;6.512;2023-02-25T01:26:13;4.60;99.90
60027;DHT22;45891;53.006;6.512;2023-02-25T01:28:40;4.60;99.90
60027;DHT22;45891;53.006;6.512;2023-02-25T01:31:06;4.70;99.90
60027;DHT22;45891;53.006;6.512;2023-02-25T01:33:33;4.70;99.90
60027;DHT22;45891;53.006;6.512;2023-02-25T01:36:06;4.80;99.90
60027;DHT22;45891;53.006;6.512;2023-02-25T01:38:32;4.70;99.90
60027;DHT22;45891;53.006;6.512;2023-02-25T01:41:02;4.70;99.90
60027;DHT22;45891;53.006;6.512;2023-02-25T01:43:28;4.70;99.90
60027;DHT22;45891;53.006;6.512;2023-02-25T01:45:54;4.70;99.90
60027;DHT22;45891;53.006;6.512;2023-02-25T01:48:21;4.70;99.90
60027;DHT22;45891;53.006;6.512;2023-02-25T01:50:49;4.70;99.90
60027;DHT22;45891;53.006;6.512;2023-02-25T01:53:18;4.70;99.90
60027;DHT22;45891;53.006;6.512;2023-02-25T01:55:45;4.70;99.90
60027;DHT22;45891;53.006;6.512;2023-02-25T01:58:11;4.70;99.90
60027;DHT22;45891;53.006;6.512;2023-02-25T02:00:38;4.70;99.90
60027;DHT22;45891;53.006;6.512;2023-02-25T02:03:04;4.70;99.90
60027;DHT22;45891;53.006;6.512;2023-02-25T02:05:36;4.70;99.90
60027;DHT22;45891;53.006;6.512;2023-02-25T02:08:03;4.70;99.90
60027;DHT22;45891;53.006;6.512;2023-02-25T02:10:30;4.70;99.90
60027;DHT22;45891;53.006;6.512;2023-02-25T02:12:56;4.70;99.90
60027;DHT22;45891;53.006;6.512;2023-02-25T02:15:22;4.70;99.90
60027;DHT22;45891;53.006;6.512;2023-02-25T02:18:00;4.70;99.90
60027;DHT22;45891;53.006;6.512;2023-02-25T02:20:32;4.70;99.90
60027;DHT22;45891;53.006;6.512;2023-02-25T02:36:05;4.60;99.90
60027;DHT22;45891;53.006;6.512;2023-02-25T02:41:23;4.70;99.90
60027;DHT22;45891;53.006;6.512;2023-02-25T02:43:55;4.60;99.90
60027;DHT22;45891;53.006;6.512;2023-02-25T02:46:23;4.60;99.90
60027;DHT22;45891;53.006;6.512;2023-02-25T02:51:20;4.60;99.90
60027;DHT22;45891;53.006;6.512;2023-02-25T02:53:51;4.50;99.90
60027;DHT22;45891;53.006;6.512;2023-02-25T02:56:18;4.60;99.90
60027;DHT22;45891;53.006;6.512;2023-02-25T02:58:47;4.50;99.90
60027;DHT22;45891;53.006;6.512;2023-02-25T03:01:18;4.60;99.90
60027;DHT22;45891;53.006;6.512;2023-02-25T03:03:46;4.60;99.90
60027;DHT22;45891;53.006;6.512;2023-02-25T03:06:20;4.50;99.90
60027;DHT22;45891;53.006;6.512;2023-02-25T03:08:47;4.40;99.90
60027;DHT22;45891;53.006;6.512;2023-02-25T03:11:14;4.40;99.90
60027;DHT22;45891;53.006;6.512;2023-02-25T03:13:40;4.40;99.90
60027;DHT22;45891;53.006;6.512;2023-02-25T03:16:08;4.30;99.90
60027;DHT22;45891;53.006;6.512;2023-02-25T03:18:47;4.30;99.90
60027;DHT22;45891;53.006;6.512;2023-02-25T03:21:14;4.30;99.90
60027;DHT22;45891;53.006;6.512;2023-02-25T03:23:42;4.30;99.90
60027;DHT22;45891;53.006;6.512;2023-02-25T03:26:12;4.30;99.90
60027;DHT22;45891;53.006;6.512;2023-02-25T03:28:39;4.20;99.90
60027;DHT22;45891;53.006;6.512;2023-02-25T03:31:26;4.30;99.90
60027;DHT22;45891;53.006;6.512;2023-02-25T03:33:58;4.40;99.90
60027;DHT22;45891;53.006;6.512;2023-02-25T03:36:30;4.30;99.90
60027;DHT22;45891;53.006;6.512;2023-02-25T03:38:58;4.20;99.90
60027;DHT22;45891;53.006;6.512;2023-02-25T03:41:27;4.20;99.90
60027;DHT22;45891;53.006;6.512;2023-02-25T03:43:54;4.20;99.90
60027;DHT22;45891;53.006;6.512;2023-02-25T03:46:21;4.20;99.90
60027;DHT22;45891;53.006;6.512;2023-02-25T03:48:47;4.20;99.90
60027;DHT22;45891;53.006;6.512;2023-02-25T03:51:15;4.10;99.90
60027;DHT22;45891;53.006;6.512;2023-02-25T03:53:43;4.10;99.90
60027;DHT22;45891;53.006;6.512;2023-02-25T03:56:09;4.10;99.90
60027;DHT22;45891;53.006;6.512;2023-02-25T03:58:36;4.10;99.90
60027;DHT22;45891;53.006;6.512;2023-02-25T04:01:11;4.20;99.90
60027;DHT22;45891;53.006;6.512;2023-02-25T04:03:38;4.20;99.90
60027;DHT22;45891;53.006;6.512;2023-02-25T04:06:04;4.20;99.90
60027;DHT22;45891;53.006;6.512;2023-02-25T04:08:30;4.20;99.90
60027;DHT22;45891;53.006;6.512;2023-02-25T04:10:56;4.20;99.90
60027;DHT22;45891;53.006;6.512;2023-02-25T04:13:22;4.20;99.90
60027;DHT22;45891;53.006;6.512;2023-02-25T04:15:48;4.20;99.90
60027;DHT22;45891;53.006;6.512;2023-02-25T04:18:14;4.20;99.90
60027;DHT22;45891;53.006;6.512;2023-02-25T04:20:40;4.20;99.90
60027;DHT22;45891;53.006;6.512;2023-02-25T04:23:06;4.20;99.90
60027;DHT22;45891;53.006;6.512;2023-02-25T04:25:33;4.20;99.90
60027;DHT22;45891;53.006;6.512;2023-02-25T04:27:58;4.20;99.90
60027;DHT22;45891;53.006;6.512;2023-02-25T04:30:24;4.20;99.90
60027;DHT22;45891;53.006;6.512;2023-02-25T04:32:52;4.20;99.90
60027;DHT22;45891;53.006;6.512;2023-02-25T04:35:18;4.20;99.90
60027;DHT22;45891;53.006;6.512;2023-02-25T04:37:44;4.30;99.90
60027;DHT22;45891;53.006;6.512;2023-02-25T04:40:14;4.30;99.90
60027;DHT22;45891;53.006;6.512;2023-02-25T04:42:40;4.20;99.90
60027;DHT22;45891;53.006;6.512;2023-02-25T04:45:07;4.30;99.90
60027;DHT22;45891;53.006;6.512;2023-02-25T04:47:34;4.30;99.90
60027;DHT22;45891;53.006;6.512;2023-02-25T04:49:59;4.20;99.90
60027;DHT22;45891;53.006;6.512;2023-02-25T04:52:25;4.30;99.90
60027;DHT22;45891;53.006;6.512;2023-02-25T04:54:51;4.20;99.90
60027;DHT22;45891;53.006;6.512;2023-02-25T04:57:17;4.10;99.90
60027;DHT22;45891;53.006;6.512;2023-02-25T04:59:43;4.10;99.90
60027;DHT22;45891;53.006;6.512;2023-02-25T05:02:09;4.10;99.90
60027;DHT22;45891;53.006;6.512;2023-02-25T05:04:35;4.00;99.90
60027;DHT22;45891;53.006;6.512;2023-02-25T05:07:02;3.90;99.90
60027;DHT22;45891;53.006;6.512;2023-02-25T05:09:28;3.80;99.90
60027;DHT22;45891;53.006;6.512;2023-02-25T05:11:54;3.80;99.90
60027;DHT22;45891;53.006;6.512;2023-02-25T05:14:20;3.80;99.90
60027;DHT22;45891;53.006;6.512;2023-02-25T05:16:46;3.70;99.90
60027;DHT22;45891;53.006;6.512;2023-02-25T05:19:18;3.70;99.90
60027;DHT22;45891;53.006;6.512;2023-02-25T05:21:46;3.70;99.90
60027;DHT22;45891;53.006;6.512;2023-02-25T05:24:12;3.70;99.90
60027;DHT22;45891;53.006;6.512;2023-02-25T05:26:38;3.70;99.90
60027;DHT22;45891;53.006;6.512;2023-02-25T05:29:04;3.70;99.90
60027;DHT22;45891;53.006;6.512;2023-02-25T05:31:30;3.70;99.90
60027;DHT22;45891;53.006;6.512;2023-02-25T05:33:56;3.60;99.90
60027;DHT22;45891;53.006;6.512;2023-02-25T05:36:22;3.60;99.90
60027;DHT22;45891;53.006;6.512;2023-02-25T05:38:51;3.60;99.90
60027;DHT22;45891;53.006;6.512;2023-02-25T05:41:17;3.60;99.90
60027;DHT22;45891;53.006;6.512;2023-02-25T05:43:43;3.60;99.90
60027;DHT22;45891;53.006;6.512;2023-02-25T05:46:10;3.50;99.90
60027;DHT22;45891;53.006;6.512;2023-02-25T05:48:38;3.50;99.90
60027;DHT22;45891;53.006;6.512;2023-02-25T05:51:09;3.50;99.90
60027;DHT22;45891;53.006;6.512;2023-02-25T05:53:35;3.50;99.90
60027;DHT22;45891;53.006;6.512;2023-02-25T05:56:03;3.50;99.90
60027;DHT22;45891;53.006;6.512;2023-02-25T05:58:29;3.40;99.90
60027;DHT22;45891;53.006;6.512;2023-02-25T06:00:55;3.40;99.90
60027;DHT22;45891;53.006;6.512;2023-02-25T06:03:21;3.40;99.90
60027;DHT22;45891;53.006;6.512;2023-02-25T06:05:47;3.50;99.90
60027;DHT22;45891;53.006;6.512;2023-02-25T06:08:13;3.50;99.90
60027;DHT22;45891;53.006;6.512;2023-02-25T06:10:39;3.60;99.90
60027;DHT22;45891;53.006;6.512;2023-02-25T06:13:05;3.60;99.90
60027;DHT22;45891;53.006;6.512;2023-02-25T06:15:32;3.60;99.90
60027;DHT22;45891;53.006;6.512;2023-02-25T06:17:58;3.60;99.90
60027;DHT22;45891;53.006;6.512;2023-02-25T06:20:24;3.60;99.90
60027;DHT22;45891;53.006;6.512;2023-02-25T06:22:50;3.60;99.90
60027;DHT22;45891;53.006;6.512;2023-02-25T06:25:16;3.60;99.90
60027;DHT22;45891;53.006;6.512;2023-02-25T06:27:42;3.60;99.90
60027;DHT22;45891;53.006;6.512;2023-02-25T06:30:09;3.60;99.90
60027;DHT22;45891;53.006;6.512;2023-02-25T06:32:35;3.60;99.90
60027;DHT22;45891;53.006;6.512;2023-02-25T06:35:01;3.60;99.90
60027;DHT22;45891;53.006;6.512;2023-02-25T06:37:27;3.60;99.90
60027;DHT22;45891;53.006;6.512;2023-02-25T06:39:53;3.60;99.90
60027;DHT22;45891;53.006;6.512;2023-02-25T06:42:19;3.60;99.90
60027;DHT22;45891;53.006;6.512;2023-02-25T06:44:45;3.60;99.90
60027;DHT22;45891;53.006;6.512;2023-02-25T06:47:11;3.70;99.90
60027;DHT22;45891;53.006;6.512;2023-02-25T06:49:37;3.60;99.90
60027;DHT22;45891;53.006;6.512;2023-02-25T06:52:03;3.60;99.90
60027;DHT22;45891;53.006;6.512;2023-02-25T06:54:28;3.50;99.90
60027;DHT22;45891;53.006;6.512;2023-02-25T06:56:54;3.40;99.90
60027;DHT22;45891;53.006;6.512;2023-02-25T06:59:20;3.30;99.90
60027;DHT22;45891;53.006;6.512;2023-02-25T07:01:46;3.20;99.90
60027;DHT22;45891;53.006;6.512;2023-02-25T07:04:16;3.10;99.90
60027;DHT22;45891;53.006;6.512;2023-02-25T07:06:42;3.10;99.90
60027;DHT22;45891;53.006;6.512;2023-02-25T07:09:08;3.10;99.90
60027;DHT22;45891;53.006;6.512;2023-02-25T07:11:34;3.10;99.90
60027;DHT22;45891;53.006;6.512;2023-02-25T07:14:04;3.00;99.90
60027;DHT22;45891;53.006;6.512;2023-02-25T07:16:30;3.00;99.90
60027;DHT22;45891;53.006;6.512;2023-02-25T07:18:57;3.00;99.90
60027;DHT22;45891;53.006;6.512;2023-02-25T07:21:26;3.00;99.90
60027;DHT22;45891;53.006;6.512;2023-02-25T07:23:54;3.00;99.90
60027;DHT22;45891;53.006;6.512;2023-02-25T07:26:19;3.00;99.90
60027;DHT22;45891;53.006;6.512;2023-02-25T07:28:46;3.00;99.90
60027;DHT22;45891;53.006;6.512;2023-02-25T07:31:14;3.00;99.90
60027;DHT22;45891;53.006;6.512;2023-02-25T07:33:41;3.00;99.90
60027;DHT22;45891;53.006;6.512;2023-02-25T07:36:08;3.10;99.90
60027;DHT22;45891;53.006;6.512;2023-02-25T07:38:34;3.10;99.90
60027;DHT22;45891;53.006;6.512;2023-02-25T07:41:07;3.10;99.90
60027;DHT22;45891;53.006;6.512;2023-02-25T07:43:33;3.10;99.90
60027;DHT22;45891;53.006;6.512;2023-02-25T07:45:59;3.10;99.90
60027;DHT22;45891;53.006;6.512;2023-02-25T07:48:26;3.20;99.90
60027;DHT22;45891;53.006;6.512;2023-02-25T07:50:52;3.20;99.90
60027;DHT22;45891;53.006;6.512;2023-02-25T07:53:18;3.30;99.90
60027;DHT22;45891;53.006;6.512;2023-02-25T07:55:46;3.30;99.90
60027;DHT22;45891;53.006;6.512;2023-02-25T07:58:12;3.40;99.90
60027;DHT22;45891;53.006;6.512;2023-02-25T08:00:39;3.50;99.90
60027;DHT22;45891;53.006;6.512;2023-02-25T08:03:06;3.50;99.90
60027;DHT22;45891;53.006;6.512;2023-02-25T08:05:35;3.60;99.90
60027;DHT22;45891;53.006;6.512;2023-02-25T08:08:01;3.50;99.90
60027;DHT22;45891;53.006;6.512;2023-02-25T08:10:28;3.50;99.90
60027;DHT22;45891;53.006;6.512;2023-02-25T08:12:54;3.50;99.90
60027;DHT22;45891;53.006;6.512;2023-02-25T08:15:20;3.50;99.90
60027;DHT22;45891;53.006;6.512;2023-02-25T08:17:45;3.50;99.90
60027;DHT22;45891;53.006;6.512;2023-02-25T08:20:15;3.60;99.90
60027;DHT22;45891;53.006;6.512;2023-02-25T08:22:41;3.60;99.90
60027;DHT22;45891;53.006;6.512;2023-02-25T08:25:07;3.70;99.90
60027;DHT22;45891;53.006;6.512;2023-02-25T08:27:34;3.70;99.90
60027;DHT22;45891;53.006;6.512;2023-02-25T08:30:00;3.70;99.90
60027;DHT22;45891;53.006;6.512;2023-02-25T08:32:26;3.90;99.90
60027;DHT22;45891;53.006;6.512;2023-02-25T08:34:52;4.00;99.90
60027;DHT22;45891;53.006;6.512;2023-02-25T08:37:18;4.00;99.90
60027;DHT22;45891;53.006;6.512;2023-02-25T08:39:44;3.90;99.90
60027;DHT22;45891;53.006;6.512;2023-02-25T08:42:10;3.90;99.90
60027;DHT22;45891;53.006;6.512;2023-02-25T08:44:36;4.00;99.90
60027;DHT22;45891;53.006;6.512;2023-02-25T08:47:03;4.10;99.90
60027;DHT22;45891;53.006;6.512;2023-02-25T08:49:30;4.20;99.90
60027;DHT22;45891;53.006;6.512;2023-02-25T08:51:56;4.30;99.90
60027;DHT22;45891;53.006;6.512;2023-02-25T08:54:21;4.30;99.90
60027;DHT22;45891;53.006;6.512;2023-02-25T08:56:50;4.40;99.90
60027;DHT22;45891;53.006;6.512;2023-02-25T08:59:16;4.50;99.90
60027;DHT22;45891;53.006;6.512;2023-02-25T09:01:42;4.60;99.90
60027;DHT22;45891;53.006;6.512;2023-02-25T09:04:17;4.70;99.90
60027;DHT22;45891;53.006;6.512;2023-02-25T09:06:43;4.70;99.90
60027;DHT22;45891;53.006;6.512;2023-02-25T09:09:12;4.70;99.90
60027;DHT22;45891;53.006;6.512;2023-02-25T09:11:40;4.80;99.90
60027;DHT22;45891;53.006;6.512;2023-02-25T09:14:06;4.90;99.90
60027;DHT22;45891;53.006;6.512;2023-02-25T09:16:32;4.90;99.90
60027;DHT22;45891;53.006;6.512;2023-02-25T09:18:58;4.90;99.90
60027;DHT22;45891;53.006;6.512;2023-02-25T09:21:24;4.90;99.90
60027;DHT22;45891;53.006;6.512;2023-02-25T09:23:50;4.90;99.90
60027;DHT22;45891;53.006;6.512;2023-02-25T09:26:17;4.90;99.90
60027;DHT22;45891;53.006;6.512;2023-02-25T09:28:43;4.90;99.90
60027;DHT22;45891;53.006;6.512;2023-02-25T09:31:10;4.80;99.90
60027;DHT22;45891;53.006;6.512;2023-02-25T09:33:38;4.70;99.90
60027;DHT22;45891;53.006;6.512;2023-02-25T09:36:14;4.70;99.90
60027;DHT22;45891;53.006;6.512;2023-02-25T09:38:41;4.60;99.90
60027;DHT22;45891;53.006;6.512;2023-02-25T09:43:56;4.60;99.90
60027;DHT22;45891;53.006;6.512;2023-02-25T09:46:24;4.60;99.90
60027;DHT22;45891;53.006;6.512;2023-02-25T09:48:53;4.70;99.90
60027;DHT22;45891;53.006;6.512;2023-02-25T09:51:20;4.80;99.90
60027;DHT22;45891;53.006;6.512;2023-02-25T09:53:58;4.80;99.90
60027;DHT22;45891;53.006;6.512;2023-02-25T09:56:26;4.90;99.90
60027;DHT22;45891;53.006;6.512;2023-02-25T09:58:53;4.80;99.90
60027;DHT22;45891;53.006;6.512;2023-02-25T10:04:01;4.80;99.90
60027;DHT22;45891;53.006;6.512;2023-02-25T10:06:33;4.80;99.90
60027;DHT22;45891;53.006;6.512;2023-02-25T10:14:19;5.30;99.90
60027;DHT22;45891;53.006;6.512;2023-02-25T10:24:49;5.30;99.90
60027;DHT22;45891;53.006;6.512;2023-02-25T10:27:27;5.30;99.90
60027;DHT22;45891;53.006;6.512;2023-02-25T10:30:15;5.40;99.90
60027;DHT22;45891;53.006;6.512;2023-02-25T10:32:40;5.40;99.90
60027;DHT22;45891;53.006;6.512;2023-02-25T10:35:14;5.40;99.90
60027;DHT22;45891;53.006;6.512;2023-02-25T10:37:41;5.50;99.90
60027;DHT22;45891;53.006;6.512;2023-02-25T10:40:12;5.40;99.90
60027;DHT22;45891;53.006;6.512;2023-02-25T10:42:46;5.40;99.90
60027;DHT22;45891;53.006;6.512;2023-02-25T10:45:16;5.20;98.60
60027;DHT22;45891;53.006;6.512;2023-02-25T10:47:43;5.10;98.70
60027;DHT22;45891;53.006;6.512;2023-02-25T10:50:23;5.00;98.40
60027;DHT22;45891;53.006;6.512;2023-02-25T10:58:04;5.00;99.20
60027;DHT22;45891;53.006;6.512;2023-02-25T11:00:31;5.00;98.90
60027;DHT22;45891;53.006;6.512;2023-02-25T11:02:58;5.10;98.70
60027;DHT22;45891;53.006;6.512;2023-02-25T11:07:54;5.20;98.60
60027;DHT22;45891;53.006;6.512;2023-02-25T11:10:21;5.20;99.20
60027;DHT22;45891;53.006;6.512;2023-02-25T11:12:49;5.10;97.00
60027;DHT22;45891;53.006;6.512;2023-02-25T11:17:44;5.10;96.10
60027;DHT22;45891;53.006;6.512;2023-02-25T11:20:20;5.00;95.60
60027;DHT22;45891;53.006;6.512;2023-02-25T11:22:46;5.00;96.80
60027;DHT22;45891;53.006;6.512;2023-02-25T11:25:17;4.90;97.00
60027;DHT22;45891;53.006;6.512;2023-02-25T11:27:44;4.90;97.40
60027;DHT22;45891;53.006;6.512;2023-02-25T11:35:31;5.00;96.10
60027;DHT22;45891;53.006;6.512;2023-02-25T11:38:23;5.00;96.20
60027;DHT22;45891;53.006;6.512;2023-02-25T11:40:50;5.10;97.60
60027;DHT22;45891;53.006;6.512;2023-02-25T11:43:20;5.10;97.00
60027;DHT22;45891;53.006;6.512;2023-02-25T11:45:52;5.20;97.20
60027;DHT22;45891;53.006;6.512;2023-02-25T11:53:23;5.40;98.30
60027;DHT22;45891;53.006;6.512;2023-02-25T12:04:03;6.00;96.70
60027;DHT22;45891;53.006;6.512;2023-02-25T12:06:35;6.40;97.00
60027;DHT22;45891;53.006;6.512;2023-02-25T12:19:19;9.70;95.70
60027;DHT22;45891;53.006;6.512;2023-02-25T12:24:43;9.70;92.70
60027;DHT22;45891;53.006;6.512;2023-02-25T12:37:52;9.80;92.10
60027;DHT22;45891;53.006;6.512;2023-02-25T12:45:43;10.40;93.10
60027;DHT22;45891;53.006;6.512;2023-02-25T13:11:48;10.90;91.80
60027;DHT22;45891;53.006;6.512;2023-02-25T13:29:34;12.50;91.80
60027;DHT22;45891;53.006;6.512;2023-02-25T13:34:34;11.70;91.90
60027;DHT22;45891;53.006;6.512;2023-02-25T13:47:31;12.60;91.80
60027;DHT22;45891;53.006;6.512;2023-02-25T13:50:04;13.30;91.80
60027;DHT22;45891;53.006;6.512;2023-02-25T13:52:45;13.40;91.00
60027;DHT22;45891;53.006;6.512;2023-02-25T14:22:38;9.50;91.40
60027;DHT22;45891;53.006;6.512;2023-02-25T14:27:23;9.80;90.70
60027;DHT22;45891;53.006;6.512;2023-02-25T14:30:02;11.00;90.70
60027;DHT22;45891;53.006;6.512;2023-02-25T14:32:38;10.50;90.60
60027;DHT22;45891;53.006;6.512;2023-02-25T14:40:23;7.50;92.60
60027;DHT22;45891;53.006;6.512;2023-02-25T14:45:36;8.70;91.80
60027;DHT22;45891;53.006;6.512;2023-02-25T14:48:04;9.30;92.00
60027;DHT22;45891;53.006;6.512;2023-02-25T14:53:01;8.80;92.50
60027;DHT22;45891;53.006;6.512;2023-02-25T14:58:33;10.50;92.00
60027;DHT22;45891;53.006;6.512;2023-02-25T15:06:16;11.10;91.00
60027;DHT22;45891;53.006;6.512;2023-02-25T15:22:23;9.50;90.40
60027;DHT22;45891;53.006;6.512;2023-02-25T15:24:50;8.20;91.20
60027;DHT22;45891;53.006;6.512;2023-02-25T15:35:11;6.10;93.80
60027;DHT22;45891;53.006;6.512;2023-02-25T15:42:50;6.00;95.10
60027;DHT22;45891;53.006;6.512;2023-02-25T15:55:46;6.00;95.00
60027;DHT22;45891;53.006;6.512;2023-02-25T16:01:20;6.00;95.50
60027;DHT22;45891;53.006;6.512;2023-02-25T16:03:47;6.00;95.60
60027;DHT22;45891;53.006;6.512;2023-02-25T16:06:19;6.00;95.60
60027;DHT22;45891;53.006;6.512;2023-02-25T16:11:23;5.90;95.80
60027;DHT22;45891;53.006;6.512;2023-02-25T16:13:51;5.70;95.70
60027;DHT22;45891;53.006;6.512;2023-02-25T16:16:17;5.70;95.90
60027;DHT22;45891;53.006;6.512;2023-02-25T16:18:47;5.70;96.20
60027;DHT22;45891;53.006;6.512;2023-02-25T16:21:19;5.60;96.50
60027;DHT22;45891;53.006;6.512;2023-02-25T16:23:46;5.60;96.60
60027;DHT22;45891;53.006;6.512;2023-02-25T16:31:45;5.50;96.80
60027;DHT22;45891;53.006;6.512;2023-02-25T16:39:31;5.40;97.80
60027;DHT22;45891;53.006;6.512;2023-02-25T16:42:04;5.20;98.20
60027;DHT22;45891;53.006;6.512;2023-02-25T16:44:32;5.10;98.30
60027;DHT22;45891;53.006;6.512;2023-02-25T16:46:59;5.00;98.80
60027;DHT22;45891;53.006;6.512;2023-02-25T16:49:59;4.80;99.20
60027;DHT22;45891;53.006;6.512;2023-02-25T16:52:23;4.70;99.60
60027;DHT22;45891;53.006;6.512;2023-02-25T16:54:52;4.60;99.80
60027;DHT22;45891;53.006;6.512;2023-02-25T16:57:20;4.50;99.90
60027;DHT22;45891;53.006;6.512;2023-02-25T16:59:46;4.40;99.90
60027;DHT22;45891;53.006;6.512;2023-02-25T17:04:42;4.30;99.90
60027;DHT22;45891;53.006;6.512;2023-02-25T17:09:43;4.10;99.90
60027;DHT22;45891;53.006;6.512;2023-02-25T17:12:56;4.10;99.90
60027;DHT22;45891;53.006;6.512;2023-02-25T17:14:57;4.10;99.90
60027;DHT22;45891;53.006;6.512;2023-02-25T17:17:27;4.00;99.90
60027;DHT22;45891;53.006;6.512;2023-02-25T17:19:55;3.90;99.90
60027;DHT22;45891;53.006;6.512;2023-02-25T17:22:22;3.90;99.90
60027;DHT22;45891;53.006;6.512;2023-02-25T17:24:50;3.70;99.90
60027;DHT22;45891;53.006;6.512;2023-02-25T17:27:17;3.70;99.90
60027;DHT22;45891;53.006;6.512;2023-02-25T17:29:44;3.60;99.90
60027;DHT22;45891;53.006;6.512;2023-02-25T17:34:48;3.50;99.90
60027;DHT22;45891;53.006;6.512;2023-02-25T17:37:15;3.50;99.90
60027;DHT22;45891;53.006;6.512;2023-02-25T17:39:42;3.40;99.90
60027;DHT22;45891;53.006;6.512;2023-02-25T17:42:35;3.40;99.90
60027;DHT22;45891;53.006;6.512;2023-02-25T17:44:59;3.30;99.90
60027;DHT22;45891;53.006;6.512;2023-02-25T17:47:29;3.20;99.90
60027;DHT22;45891;53.006;6.512;2023-02-25T17:49:56;3.10;99.90
60027;DHT22;45891;53.006;6.512;2023-02-25T17:52:25;3.10;99.90
60027;DHT22;45891;53.006;6.512;2023-02-25T17:54:54;3.00;99.90
60027;DHT22;45891;53.006;6.512;2023-02-25T17:57:22;2.90;99.90
60027;DHT22;45891;53.006;6.512;2023-02-25T17:59:49;2.90;99.90
60027;DHT22;45891;53.006;6.512;2023-02-25T18:04:45;2.80;99.90
60027;DHT22;45891;53.006;6.512;2023-02-25T18:07:30;2.80;99.90
60027;DHT22;45891;53.006;6.512;2023-02-25T18:10:00;2.70;99.90
60027;DHT22;45891;53.006;6.512;2023-02-25T18:12:31;2.70;99.90
60027;DHT22;45891;53.006;6.512;2023-02-25T18:15:01;2.60;99.90
60027;DHT22;45891;53.006;6.512;2023-02-25T18:17:32;2.60;99.90
60027;DHT22;45891;53.006;6.512;2023-02-25T18:20:03;2.50;99.90
60027;DHT22;45891;53.006;6.512;2023-02-25T18:24:59;2.40;99.90
60027;DHT22;45891;53.006;6.512;2023-02-25T18:27:26;2.40;99.90
60027;DHT22;45891;53.006;6.512;2023-02-25T18:29:58;2.40;99.90
60027;DHT22;45891;53.006;6.512;2023-02-25T18:32:26;2.30;99.90
60027;DHT22;45891;53.006;6.512;2023-02-25T18:34:52;2.30;99.90
60027;DHT22;45891;53.006;6.512;2023-02-25T18:37:18;2.30;99.90
60027;DHT22;45891;53.006;6.512;2023-02-25T18:39:45;2.20;99.90
60027;DHT22;45891;53.006;6.512;2023-02-25T18:42:12;2.20;99.90
60027;DHT22;45891;53.006;6.512;2023-02-25T18:44:39;2.20;99.90
60027;DHT22;45891;53.006;6.512;2023-02-25T18:47:05;2.10;99.90
60027;DHT22;45891;53.006;6.512;2023-02-25T18:49:31;2.10;99.90
60027;DHT22;45891;53.006;6.512;2023-02-25T18:51:57;2.10;99.90
60027;DHT22;45891;53.006;6.512;2023-02-25T18:54:23;2.00;99.90
60027;DHT22;45891;53.006;6.512;2023-02-25T18:56:49;2.00;99.90
60027;DHT22;45891;53.006;6.512;2023-02-25T18:59:15;2.00;99.90
60027;DHT22;45891;53.006;6.512;2023-02-25T19:01:41;1.90;99.90
60027;DHT22;45891;53.006;6.512;2023-02-25T19:04:09;1.90;99.90
60027;DHT22;45891;53.006;6.512;2023-02-25T19:06:35;1.90;99.90
60027;DHT22;45891;53.006;6.512;2023-02-25T19:09:01;1.90;99.90
60027;DHT22;45891;53.006;6.512;2023-02-25T19:11:29;1.80;99.90
60027;DHT22;45891;53.006;6.512;2023-02-25T19:13:55;1.80;99.90
60027;DHT22;45891;53.006;6.512;2023-02-25T19:16:21;1.80;99.90
60027;DHT22;45891;53.006;6.512;2023-02-25T19:18:47;1.70;99.90
60027;DHT22;45891;53.006;6.512;2023-02-25T19:21:15;1.70;99.90
60027;DHT22;45891;53.006;6.512;2023-02-25T19:23:42;1.60;99.90
60027;DHT22;45891;53.006;6.512;2023-02-25T19:26:10;1.60;99.90
60027;DHT22;45891;53.006;6.512;2023-02-25T19:28:36;1.60;99.90
60027;DHT22;45891;53.006;6.512;2023-02-25T19:31:06;1.60;99.90
60027;DHT22;45891;53.006;6.512;2023-02-25T19:33:32;1.60;99.90
60027;DHT22;45891;53.006;6.512;2023-02-25T19:35:58;1.60;99.90
60027;DHT22;45891;53.006;6.512;2023-02-25T19:38:25;1.60;99.90
60027;DHT22;45891;53.006;6.512;2023-02-25T19:40:50;1.50;99.90
60027;DHT22;45891;53.006;6.512;2023-02-25T19:43:16;1.50;99.90
60027;DHT22;45891;53.006;6.512;2023-02-25T19:45:43;1.50;99.90
60027;DHT22;45891;53.006;6.512;2023-02-25T19:48:09;1.50;99.90
60027;DHT22;45891;53.006;6.512;2023-02-25T19:50:35;1.50;99.90
60027;DHT22;45891;53.006;6.512;2023-02-25T19:53:02;1.50;99.90
60027;DHT22;45891;53.006;6.512;2023-02-25T19:55:28;1.50;99.90
60027;DHT22;45891;53.006;6.512;2023-02-25T19:57:54;1.50;99.90
60027;DHT22;45891;53.006;6.512;2023-02-25T20:00:21;1.50;99.90
60027;DHT22;45891;53.006;6.512;2023-02-25T20:02:47;1.50;99.90
60027;DHT22;45891;53.006;6.512;2023-02-25T20:05:13;1.50;99.90
60027;DHT22;45891;53.006;6.512;2023-02-25T20:07:40;1.50;99.90
60027;DHT22;45891;53.006;6.512;2023-02-25T20:10:06;1.40;99.90